sensor_id;sensor_type;location;lat;lon;timestamp;pressure;altitude;pressure_sealevel;temperature;humidity
79617;BME280;69097;52.132;5.422;2023-09-19T00:00:31;100842.75;;;14.84;91.37
79617;BME280;69097;52.132;5.422;2023-09-19T00:03:00;100843.50;;;14.75;91.15
79617;BME280;69097;52.132;5.422;2023-09-19T00:05:28;100852.88;;;14.72;91.54
79617;BME280;69097;52.132;5.422;2023-09-19T00:07:56;100851.00;;;14.69;91.72
79617;BME280;69097;52.132;5.422;2023-09-19T00:10:29;100853.50;;;14.67;91.59
79617;BME280;69097;52.132;5.422;2023-09-19T00:12:58;100855.06;;;14.68;91.60
79617;BME280;69097;52.132;5.422;2023-09-19T00:15:36;100866.00;;;14.66;91.43
79617;BME280;69097;52.132;5.422;2023-09-19T00:18:04;100865.03;;;14.60;90.91
79617;BME280;69097;52.132;5.422;2023-09-19T00:20:38;100863.47;;;14.59;91.79
79617;BME280;69097;52.132;5.422;2023-09-19T00:23:05;100865.50;;;14.59;91.86
79617;BME280;69097;52.132;5.422;2023-09-19T00:25:35;100862.22;;;14.60;91.78
79617;BME280;69097;52.132;5.422;2023-09-19T00:28:04;100864.44;;;14.65;91.90
79617;BME280;69097;52.132;5.422;2023-09-19T00:30:31;100868.19;;;14.62;91.64
79617;BME280;69097;52.132;5.422;2023-09-19T00:32:59;100871.16;;;14.59;91.83
79617;BME280;69097;52.132;5.422;2023-09-19T00:35:27;100868.00;;;14.57;91.83
79617;BME280;69097;52.132;5.422;2023-09-19T00:37:56;100876.13;;;14.55;92.06
79617;BME280;69097;52.132;5.422;2023-09-19T00:40:22;100875.38;;;14.54;91.85
79617;BME280;69097;52.132;5.422;2023-09-19T00:42:50;100868.59;;;14.52;91.98
79617;BME280;69097;52.132;5.422;2023-09-19T00:45:17;100875.84;;;14.53;92.27
79617;BME280;69097;52.132;5.422;2023-09-19T00:47:46;100879.75;;;14.55;92.34
79617;BME280;69097;52.132;5.422;2023-09-19T00:50:20;100876.00;;;14.58;92.20
79617;BME280;69097;52.132;5.422;2023-09-19T00:52:48;100882.44;;;14.59;92.34
79617;BME280;69097;52.132;5.422;2023-09-19T00:55:17;100886.06;;;14.59;92.43
79617;BME280;69097;52.132;5.422;2023-09-19T00:57:47;100879.16;;;14.60;92.17
79617;BME280;69097;52.132;5.422;2023-09-19T01:00:16;100880.72;;;14.61;92.45
79617;BME280;69097;52.132;5.422;2023-09-19T01:02:47;100892.03;;;14.61;92.21
79617;BME280;69097;52.132;5.422;2023-09-19T01:05:14;100891.72;;;14.59;92.28
79617;BME280;69097;52.132;5.422;2023-09-19T01:07:41;100891.72;;;14.59;92.48
79617;BME280;69097;52.132;5.422;2023-09-19T01:10:10;100895.63;;;14.62;92.56
79617;BME280;69097;52.132;5.422;2023-09-19T01:13:13;100906.13;;;14.61;92.66
79617;BME280;69097;52.132;5.422;2023-09-19T01:15:57;100901.28;;;14.62;92.57
79617;BME280;69097;52.132;5.422;2023-09-19T01:18:35;100893.28;;;14.60;92.74
79617;BME280;69097;52.132;5.422;2023-09-19T01:24:06;100894.53;;;14.59;92.75
79617;BME280;69097;52.132;5.422;2023-09-19T01:29:38;100897.34;;;14.59;92.64
79617;BME280;69097;52.132;5.422;2023-09-19T01:32:08;100895.31;;;14.60;92.87
79617;BME280;69097;52.132;5.422;2023-09-19T01:34:55;100895.31;;;14.60;92.91
79617;BME280;69097;52.132;5.422;2023-09-19T01:37:32;100903.78;;;14.60;93.08
79617;BME280;69097;52.132;5.422;2023-09-19T01:40:03;100896.91;;;14.61;93.10
79617;BME280;69097;52.132;5.422;2023-09-19T01:42:44;100902.09;;;14.62;93.18
79617;BME280;69097;52.132;5.422;2023-09-19T01:48:05;100907.06;;;14.58;93.31
79617;BME280;69097;52.132;5.422;2023-09-19T01:50:44;100904.22;;;14.58;93.24
79617;BME280;69097;52.132;5.422;2023-09-19T01:53:33;100907.84;;;14.59;93.16
79617;BME280;69097;52.132;5.422;2023-09-19T01:56:00;100912.69;;;14.58;93.40
79617;BME280;69097;52.132;5.422;2023-09-19T01:58:39;100907.84;;;14.59;93.23
79617;BME280;69097;52.132;5.422;2023-09-19T02:01:11;100912.38;;;14.56;93.18
79617;BME280;69097;52.132;5.422;2023-09-19T02:03:40;100907.97;;;14.55;93.25
79617;BME280;69097;52.132;5.422;2023-09-19T02:06:16;100906.88;;;14.53;93.00
79617;BME280;69097;52.132;5.422;2023-09-19T02:08:44;100916.56;;;14.52;93.22
79617;BME280;69097;52.132;5.422;2023-09-19T02:11:11;100908.91;;;14.52;93.05
79617;BME280;69097;52.132;5.422;2023-09-19T02:13:39;100914.56;;;14.52;92.90
79617;BME280;69097;52.132;5.422;2023-09-19T02:16:07;100910.13;;;14.51;93.16
79617;BME280;69097;52.132;5.422;2023-09-19T02:18:36;100900.91;;;14.51;93.01
79617;BME280;69097;52.132;5.422;2023-09-19T02:21:02;100899.78;;;14.48;93.18
79617;BME280;69097;52.132;5.422;2023-09-19T02:23:30;100902.25;;;14.46;92.98
79617;BME280;69097;52.132;5.422;2023-09-19T02:25:56;100909.75;;;14.40;92.51
79617;BME280;69097;52.132;5.422;2023-09-19T02:28:32;100912.69;;;14.37;92.75
79617;BME280;69097;52.132;5.422;2023-09-19T02:31:00;100917.53;;;14.36;92.60
79617;BME280;69097;52.132;5.422;2023-09-19T02:33:27;100917.53;;;14.36;92.40
79617;BME280;69097;52.132;5.422;2023-09-19T02:36:01;100918.00;;;14.35;92.36
79617;BME280;69097;52.132;5.422;2023-09-19T02:38:30;100914.41;;;14.34;92.28
79617;BME280;69097;52.132;5.422;2023-09-19T02:40:56;100920.94;;;14.31;91.61
79617;BME280;69097;52.132;5.422;2023-09-19T02:43:23;100913.41;;;14.28;91.48
79617;BME280;69097;52.132;5.422;2023-09-19T02:45:50;100919.97;;;14.25;91.44
79617;BME280;69097;52.132;5.422;2023-09-19T02:48:16;100918.50;;;14.21;91.44
79617;BME280;69097;52.132;5.422;2023-09-19T02:50:45;100923.00;;;14.18;91.14
79617;BME280;69097;52.132;5.422;2023-09-19T02:53:12;100922.66;;;14.16;91.16
79617;BME280;69097;52.132;5.422;2023-09-19T02:55:39;100923.47;;;14.17;91.08
79617;BME280;69097;52.132;5.422;2023-09-19T02:58:09;100919.19;;;14.12;91.16
79617;BME280;69097;52.132;5.422;2023-09-19T03:00:37;100928.13;;;14.11;90.84
79617;BME280;69097;52.132;5.422;2023-09-19T03:03:04;100930.72;;;14.05;90.64
79617;BME280;69097;52.132;5.422;2023-09-19T03:05:32;100928.00;;;14.02;90.72
79617;BME280;69097;52.132;5.422;2023-09-19T03:07:59;100922.94;;;13.97;90.25
79617;BME280;69097;52.132;5.422;2023-09-19T03:10:29;100927.00;;;13.96;90.38
79617;BME280;69097;52.132;5.422;2023-09-19T03:12:57;100919.56;;;13.89;90.34
79617;BME280;69097;52.132;5.422;2023-09-19T03:15:26;100917.66;;;13.86;90.25
79617;BME280;69097;52.132;5.422;2023-09-19T03:17:52;100917.00;;;13.82;90.06
79617;BME280;69097;52.132;5.422;2023-09-19T03:20:20;100922.44;;;13.77;90.08
79617;BME280;69097;52.132;5.422;2023-09-19T03:22:47;100919.38;;;13.71;89.95
79617;BME280;69097;52.132;5.422;2023-09-19T03:25:15;100927.16;;;13.67;89.56
79617;BME280;69097;52.132;5.422;2023-09-19T03:27:43;100919.16;;;13.66;89.65
79617;BME280;69097;52.132;5.422;2023-09-19T03:30:10;100919.25;;;13.62;89.69
79617;BME280;69097;52.132;5.422;2023-09-19T03:32:46;100926.94;;;13.62;89.63
79617;BME280;69097;52.132;5.422;2023-09-19T03:35:13;100929.09;;;13.57;89.54
79617;BME280;69097;52.132;5.422;2023-09-19T03:37:41;100930.00;;;13.54;88.88
79617;BME280;69097;52.132;5.422;2023-09-19T03:40:11;100928.53;;;13.50;89.12
79617;BME280;69097;52.132;5.422;2023-09-19T03:42:39;100919.75;;;13.48;89.41
79617;BME280;69097;52.132;5.422;2023-09-19T03:45:07;100915.34;;;13.47;89.14
79617;BME280;69097;52.132;5.422;2023-09-19T03:47:38;100903.84;;;13.41;88.83
79617;BME280;69097;52.132;5.422;2023-09-19T03:50:06;100910.81;;;13.37;88.20
79617;BME280;69097;52.132;5.422;2023-09-19T03:52:34;100912.53;;;13.34;88.19
79617;BME280;69097;52.132;5.422;2023-09-19T03:55:00;100917.94;;;13.29;87.86
79617;BME280;69097;52.132;5.422;2023-09-19T03:57:28;100916.38;;;13.28;88.66
79617;BME280;69097;52.132;5.422;2023-09-19T03:59:55;100914.00;;;13.26;87.82
79617;BME280;69097;52.132;5.422;2023-09-19T04:02:23;100926.94;;;13.24;87.81
79617;BME280;69097;52.132;5.422;2023-09-19T04:04:52;100938.31;;;13.20;87.69
79617;BME280;69097;52.132;5.422;2023-09-19T04:07:19;100937.50;;;13.20;87.23
79617;BME280;69097;52.132;5.422;2023-09-19T04:09:49;100938.06;;;13.15;87.44
79617;BME280;69097;52.132;5.422;2023-09-19T04:12:15;100945.41;;;13.12;87.10
79617;BME280;69097;52.132;5.422;2023-09-19T04:14:45;100947.53;;;13.08;87.43
79617;BME280;69097;52.132;5.422;2023-09-19T04:17:11;100946.75;;;13.08;87.42
79617;BME280;69097;52.132;5.422;2023-09-19T04:19:38;100950.44;;;13.05;87.27
79617;BME280;69097;52.132;5.422;2023-09-19T04:22:04;100955.31;;;13.04;87.27
79617;BME280;69097;52.132;5.422;2023-09-19T04:24:31;100950.13;;;13.03;86.88
79617;BME280;69097;52.132;5.422;2023-09-19T04:26:58;100959.41;;;13.00;87.31
79617;BME280;69097;52.132;5.422;2023-09-19T04:29:28;100961.81;;;13.01;87.08
79617;BME280;69097;52.132;5.422;2023-09-19T04:31:56;100973.94;;;12.98;86.30
79617;BME280;69097;52.132;5.422;2023-09-19T04:34:25;100976.88;;;12.95;87.01
79617;BME280;69097;52.132;5.422;2023-09-19T04:36:52;100976.56;;;12.93;87.07
79617;BME280;69097;52.132;5.422;2023-09-19T04:39:19;100992.19;;;12.94;87.21
79617;BME280;69097;52.132;5.422;2023-09-19T04:41:45;100999.50;;;12.91;86.96
79617;BME280;69097;52.132;5.422;2023-09-19T04:44:14;100996.34;;;12.89;86.36
79617;BME280;69097;52.132;5.422;2023-09-19T04:46:40;101003.22;;;12.88;86.31
79617;BME280;69097;52.132;5.422;2023-09-19T04:49:07;100998.38;;;12.89;86.57
79617;BME280;69097;52.132;5.422;2023-09-19T04:51:33;100997.94;;;12.90;86.45
79617;BME280;69097;52.132;5.422;2023-09-19T04:54:02;100993.09;;;12.91;86.67
79617;BME280;69097;52.132;5.422;2023-09-19T04:56:29;100990.28;;;12.91;85.99
79617;BME280;69097;52.132;5.422;2023-09-19T04:58:56;100988.59;;;12.93;86.45
79617;BME280;69097;52.132;5.422;2023-09-19T05:01:25;100976.88;;;12.95;86.98
79617;BME280;69097;52.132;5.422;2023-09-19T05:03:51;100988.47;;;12.97;86.83
79617;BME280;69097;52.132;5.422;2023-09-19T05:06:19;100990.94;;;12.95;86.76
79617;BME280;69097;52.132;5.422;2023-09-19T05:08:50;100997.38;;;12.95;86.26
79617;BME280;69097;52.132;5.422;2023-09-19T05:11:19;100998.63;;;12.94;86.45
79617;BME280;69097;52.132;5.422;2023-09-19T05:13:48;100997.03;;;12.93;86.59
79617;BME280;69097;52.132;5.422;2023-09-19T05:16:16;100997.81;;;12.94;86.49
79617;BME280;69097;52.132;5.422;2023-09-19T05:18:43;101005.03;;;12.95;86.85
79617;BME280;69097;52.132;5.422;2023-09-19T05:21:09;101001.00;;;12.96;86.72
79617;BME280;69097;52.132;5.422;2023-09-19T05:23:36;101004.16;;;12.98;86.64
79617;BME280;69097;52.132;5.422;2023-09-19T05:26:03;100992.44;;;12.99;86.99
79617;BME280;69097;52.132;5.422;2023-09-19T05:28:31;100992.91;;;12.98;86.84
79617;BME280;69097;52.132;5.422;2023-09-19T05:31:01;101006.19;;;12.97;86.71
79617;BME280;69097;52.132;5.422;2023-09-19T05:33:31;100990.41;;;13.00;86.71
79617;BME280;69097;52.132;5.422;2023-09-19T05:35:58;100999.66;;;13.00;87.07
79617;BME280;69097;52.132;5.422;2023-09-19T05:38:25;100994.00;;;13.00;86.78
79617;BME280;69097;52.132;5.422;2023-09-19T05:40:53;100986.81;;;12.99;86.67
79617;BME280;69097;52.132;5.422;2023-09-19T05:43:20;100991.66;;;12.99;86.25
79617;BME280;69097;52.132;5.422;2023-09-19T05:45:47;100990.41;;;13.00;86.50
79617;BME280;69097;52.132;5.422;2023-09-19T05:48:14;100985.94;;;13.02;86.69
79617;BME280;69097;52.132;5.422;2023-09-19T05:50:42;100992.38;;;13.03;87.19
79617;BME280;69097;52.132;5.422;2023-09-19T05:53:09;100997.09;;;13.06;87.13
79617;BME280;69097;52.132;5.422;2023-09-19T05:55:39;100993.03;;;13.07;86.80
79617;BME280;69097;52.132;5.422;2023-09-19T05:58:06;101009.38;;;13.12;87.21
79617;BME280;69097;52.132;5.422;2023-09-19T06:00:33;101005.69;;;13.15;87.19
79617;BME280;69097;52.132;5.422;2023-09-19T06:03:02;101003.91;;;13.21;86.97
79617;BME280;69097;52.132;5.422;2023-09-19T06:05:29;100997.03;;;13.22;87.25
79617;BME280;69097;52.132;5.422;2023-09-19T06:07:58;101004.56;;;13.25;86.93
79617;BME280;69097;52.132;5.422;2023-09-19T06:10:27;101016.19;;;13.27;86.95
79617;BME280;69097;52.132;5.422;2023-09-19T06:12:58;101019.34;;;13.29;86.95
79617;BME280;69097;52.132;5.422;2023-09-19T06:15:25;101020.91;;;13.30;86.60
79617;BME280;69097;52.132;5.422;2023-09-19T06:17:54;101026.13;;;13.31;86.84
79617;BME280;69097;52.132;5.422;2023-09-19T06:20:26;101027.69;;;13.32;86.73
79617;BME280;69097;52.132;5.422;2023-09-19T06:22:53;101028.84;;;13.35;87.04
79617;BME280;69097;52.132;5.422;2023-09-19T06:25:21;101026.81;;;13.35;86.70
79617;BME280;69097;52.132;5.422;2023-09-19T06:27:49;101026.34;;;13.37;87.35
79617;BME280;69097;52.132;5.422;2023-09-19T06:30:18;101025.13;;;13.38;87.11
79617;BME280;69097;52.132;5.422;2023-09-19T06:32:45;101027.03;;;13.41;87.25
79617;BME280;69097;52.132;5.422;2023-09-19T06:35:13;101028.28;;;13.40;86.70
79617;BME280;69097;52.132;5.422;2023-09-19T06:37:41;101014.53;;;13.42;86.89
79617;BME280;69097;52.132;5.422;2023-09-19T06:40:09;101019.69;;;13.43;87.15
79617;BME280;69097;52.132;5.422;2023-09-19T06:42:51;101015.56;;;13.48;87.22
79617;BME280;69097;52.132;5.422;2023-09-19T06:45:22;101020.28;;;13.51;86.88
79617;BME280;69097;52.132;5.422;2023-09-19T06:47:52;101013.75;;;13.54;87.25
79617;BME280;69097;52.132;5.422;2023-09-19T06:50:21;101020.53;;;13.56;87.22
79617;BME280;69097;52.132;5.422;2023-09-19T06:52:52;101014.78;;;13.60;87.28
79617;BME280;69097;52.132;5.422;2023-09-19T06:55:22;101015.56;;;13.60;87.20
79617;BME280;69097;52.132;5.422;2023-09-19T06:57:51;101016.25;;;13.65;87.50
79617;BME280;69097;52.132;5.422;2023-09-19T07:00:20;101022.22;;;13.67;87.38
79617;BME280;69097;52.132;5.422;2023-09-19T07:03:02;101010.84;;;13.70;87.04
79617;BME280;69097;52.132;5.422;2023-09-19T07:05:31;101009.94;;;13.73;87.29
79617;BME280;69097;52.132;5.422;2023-09-19T07:08:00;101017.50;;;13.76;87.49
79617;BME280;69097;52.132;5.422;2023-09-19T07:10:28;101012.09;;;13.82;87.56
79617;BME280;69097;52.132;5.422;2023-09-19T07:12:55;101013.53;;;13.86;87.21
79617;BME280;69097;52.132;5.422;2023-09-19T07:15:23;101016.59;;;13.92;87.53
79617;BME280;69097;52.132;5.422;2023-09-19T07:17:54;101016.03;;;13.97;87.87
79617;BME280;69097;52.132;5.422;2023-09-19T07:20:23;101024.38;;;14.00;87.85
79617;BME280;69097;52.132;5.422;2023-09-19T07:22:53;101030.66;;;14.04;87.19
79617;BME280;69097;52.132;5.422;2023-09-19T07:25:22;101033.38;;;14.08;87.05
79617;BME280;69097;52.132;5.422;2023-09-19T07:27:49;101048.97;;;14.12;86.56
79617;BME280;69097;52.132;5.422;2023-09-19T07:30:17;101045.56;;;14.17;86.93
79617;BME280;69097;52.132;5.422;2023-09-19T07:32:44;101046.69;;;14.20;86.82
79617;BME280;69097;52.132;5.422;2023-09-19T07:35:10;101050.97;;;14.24;86.75
79617;BME280;69097;52.132;5.422;2023-09-19T07:37:38;101046.03;;;14.28;86.50
79617;BME280;69097;52.132;5.422;2023-09-19T07:40:06;101058.00;;;14.32;86.36
79617;BME280;69097;52.132;5.422;2023-09-19T07:42:36;101042.53;;;14.37;86.19
79617;BME280;69097;52.132;5.422;2023-09-19T07:45:06;101046.78;;;14.41;86.42
79617;BME280;69097;52.132;5.422;2023-09-19T07:47:34;101049.38;;;14.48;85.71
79617;BME280;69097;52.132;5.422;2023-09-19T07:50:03;101048.03;;;14.53;85.71
79617;BME280;69097;52.132;5.422;2023-09-19T07:52:29;101042.13;;;14.60;85.43
79617;BME280;69097;52.132;5.422;2023-09-19T07:54:56;101050.81;;;14.65;84.85
79617;BME280;69097;52.132;5.422;2023-09-19T07:57:24;101048.66;;;14.69;84.65
79617;BME280;69097;52.132;5.422;2023-09-19T07:59:51;101050.56;;;14.72;85.14
79617;BME280;69097;52.132;5.422;2023-09-19T08:02:18;101052.13;;;14.73;84.69
79617;BME280;69097;52.132;5.422;2023-09-19T08:04:45;101046.81;;;14.75;84.16
79617;BME280;69097;52.132;5.422;2023-09-19T08:07:15;101055.97;;;14.79;85.31
79617;BME280;69097;52.132;5.422;2023-09-19T08:09:42;101045.66;;;14.86;85.10
79617;BME280;69097;52.132;5.422;2023-09-19T08:12:12;101053.88;;;14.93;84.75
79617;BME280;69097;52.132;5.422;2023-09-19T08:14:39;101049.19;;;14.99;84.59
79617;BME280;69097;52.132;5.422;2023-09-19T08:17:07;101045.78;;;15.04;84.56
79617;BME280;69097;52.132;5.422;2023-09-19T08:19:38;101059.03;;;15.07;84.43
79617;BME280;69097;52.132;5.422;2023-09-19T08:22:08;101050.41;;;15.10;83.85
79617;BME280;69097;52.132;5.422;2023-09-19T08:24:36;101043.03;;;15.13;83.88
79617;BME280;69097;52.132;5.422;2023-09-19T08:27:04;101044.94;;;15.16;83.72
79617;BME280;69097;52.132;5.422;2023-09-19T08:29:31;101043.13;;;15.22;84.08
79617;BME280;69097;52.132;5.422;2023-09-19T08:31:57;101047.38;;;15.26;84.01
79617;BME280;69097;52.132;5.422;2023-09-19T08:34:24;101045.22;;;15.30;83.34
79617;BME280;69097;52.132;5.422;2023-09-19T08:36:52;101053.09;;;15.35;84.10
79617;BME280;69097;52.132;5.422;2023-09-19T08:39:23;101043.25;;;15.40;83.77
79617;BME280;69097;52.132;5.422;2023-09-19T08:41:51;101039.84;;;15.45;84.19
79617;BME280;69097;52.132;5.422;2023-09-19T08:44:22;101038.78;;;15.51;84.20
79617;BME280;69097;52.132;5.422;2023-09-19T08:46:54;101045.44;;;15.57;83.84
79617;BME280;69097;52.132;5.422;2023-09-19T08:49:28;101037.56;;;15.61;83.63
79617;BME280;69097;52.132;5.422;2023-09-19T08:52:41;101028.03;;;15.68;83.40
79617;BME280;69097;52.132;5.422;2023-09-19T08:55:11;101035.28;;;15.69;82.92
79617;BME280;69097;52.132;5.422;2023-09-19T08:57:40;101029.94;;;15.71;81.57
79617;BME280;69097;52.132;5.422;2023-09-19T09:00:09;101030.09;;;15.76;81.70
79617;BME280;69097;52.132;5.422;2023-09-19T09:02:37;101033.47;;;15.84;82.45
79617;BME280;69097;52.132;5.422;2023-09-19T09:05:08;101039.94;;;15.93;82.93
79617;BME280;69097;52.132;5.422;2023-09-19T09:07:36;101033.03;;;16.03;83.46
79617;BME280;69097;52.132;5.422;2023-09-19T09:10:03;101035.78;;;16.16;82.60
79617;BME280;69097;52.132;5.422;2023-09-19T09:12:30;101039.41;;;16.26;80.95
79617;BME280;69097;52.132;5.422;2023-09-19T09:14:57;101044.59;;;16.27;80.44
79617;BME280;69097;52.132;5.422;2023-09-19T09:17:24;101044.78;;;16.33;80.70
79617;BME280;69097;52.132;5.422;2023-09-19T09:19:54;101033.31;;;16.36;79.95
79617;BME280;69097;52.132;5.422;2023-09-19T09:22:20;101040.25;;;16.44;80.07
79617;BME280;69097;52.132;5.422;2023-09-19T09:24:52;101029.59;;;16.57;79.05
79617;BME280;69097;52.132;5.422;2023-09-19T09:27:20;101031.78;;;16.62;79.24
79617;BME280;69097;52.132;5.422;2023-09-19T09:29:51;101033.72;;;16.65;78.55
79617;BME280;69097;52.132;5.422;2023-09-19T09:32:24;101031.66;;;16.66;78.96
79617;BME280;69097;52.132;5.422;2023-09-19T09:34:55;101028.34;;;16.67;79.53
79617;BME280;69097;52.132;5.422;2023-09-19T09:37:27;101027.09;;;16.68;78.89
79617;BME280;69097;52.132;5.422;2023-09-19T09:39:58;101027.72;;;16.81;79.09
79617;BME280;69097;52.132;5.422;2023-09-19T09:42:35;101016.25;;;16.94;77.55
79617;BME280;69097;52.132;5.422;2023-09-19T09:45:15;101018.44;;;17.08;77.48
79617;BME280;69097;52.132;5.422;2023-09-19T09:47:47;101001.25;;;17.20;76.63
79617;BME280;69097;52.132;5.422;2023-09-19T09:50:30;101014.13;;;17.40;76.93
79617;BME280;69097;52.132;5.422;2023-09-19T09:53:24;101015.81;;;17.64;76.13
79617;BME280;69097;52.132;5.422;2023-09-19T09:56:06;101006.69;;;17.60;74.92
79617;BME280;69097;52.132;5.422;2023-09-19T09:58:37;101010.34;;;17.52;75.69
79617;BME280;69097;52.132;5.422;2023-09-19T10:01:07;101006.84;;;17.57;75.68
79617;BME280;69097;52.132;5.422;2023-09-19T10:03:38;101003.09;;;17.51;73.99
79617;BME280;69097;52.132;5.422;2023-09-19T10:06:08;101018.84;;;17.52;74.52
79617;BME280;69097;52.132;5.422;2023-09-19T10:09:07;101015.09;;;17.46;74.60
79617;BME280;69097;52.132;5.422;2023-09-19T10:11:43;101018.19;;;17.57;75.67
79617;BME280;69097;52.132;5.422;2023-09-19T10:14:15;101018.09;;;17.51;73.63
79617;BME280;69097;52.132;5.422;2023-09-19T10:16:48;101010.03;;;17.41;74.75
79617;BME280;69097;52.132;5.422;2023-09-19T10:19:21;101023.25;;;17.35;73.24
79617;BME280;69097;52.132;5.422;2023-09-19T10:21:54;101020.47;;;17.26;73.07
79617;BME280;69097;52.132;5.422;2023-09-19T10:24:21;101019.50;;;17.19;74.18
79617;BME280;69097;52.132;5.422;2023-09-19T10:26:49;101017.47;;;17.20;74.42
79617;BME280;69097;52.132;5.422;2023-09-19T10:29:17;101002.50;;;17.29;74.25
79617;BME280;69097;52.132;5.422;2023-09-19T10:31:47;100998.38;;;17.48;74.49
79617;BME280;69097;52.132;5.422;2023-09-19T10:34:14;101001.19;;;17.57;73.37
79617;BME280;69097;52.132;5.422;2023-09-19T10:36:44;100988.25;;;17.65;73.05
79617;BME280;69097;52.132;5.422;2023-09-19T10:39:14;100983.84;;;17.96;73.58
79617;BME280;69097;52.132;5.422;2023-09-19T10:41:49;100977.34;;;18.28;74.23
79617;BME280;69097;52.132;5.422;2023-09-19T10:44:23;100974.91;;;18.45;71.07
79617;BME280;69097;52.132;5.422;2023-09-19T10:46:52;100978.91;;;18.29;72.32
79617;BME280;69097;52.132;5.422;2023-09-19T10:49:21;100974.19;;;18.26;72.92
79617;BME280;69097;52.132;5.422;2023-09-19T10:51:56;100969.31;;;18.27;72.73
79617;BME280;69097;52.132;5.422;2023-09-19T10:54:27;100980.41;;;18.16;72.47
79617;BME280;69097;52.132;5.422;2023-09-19T10:56:55;100953.69;;;17.99;72.32
79617;BME280;69097;52.132;5.422;2023-09-19T10:59:25;100952.69;;;18.11;73.11
79617;BME280;69097;52.132;5.422;2023-09-19T11:01:53;100961.06;;;18.29;73.34
79617;BME280;69097;52.132;5.422;2023-09-19T11:04:30;100961.66;;;18.42;72.38
79617;BME280;69097;52.132;5.422;2023-09-19T11:07:11;100957.84;;;18.45;72.22
79617;BME280;69097;52.132;5.422;2023-09-19T11:10:04;100940.84;;;18.60;71.34
79617;BME280;69097;52.132;5.422;2023-09-19T11:14:59;100949.50;;;18.42;71.31
79617;BME280;69097;52.132;5.422;2023-09-19T11:17:39;100948.59;;;18.35;71.84
79617;BME280;69097;52.132;5.422;2023-09-19T11:30:36;100933.09;;;18.60;71.40
79617;BME280;69097;52.132;5.422;2023-09-19T11:33:22;100948.47;;;18.54;71.43
79617;BME280;69097;52.132;5.422;2023-09-19T11:36:09;100932.94;;;18.40;71.03
79617;BME280;69097;52.132;5.422;2023-09-19T11:43:49;100924.91;;;18.15;72.00
79617;BME280;69097;52.132;5.422;2023-09-19T11:46:21;100930.16;;;18.07;70.31
79617;BME280;69097;52.132;5.422;2023-09-19T11:48:49;100929.38;;;18.07;71.45
79617;BME280;69097;52.132;5.422;2023-09-19T11:51:20;100921.13;;;18.09;71.25
79617;BME280;69097;52.132;5.422;2023-09-19T11:53:54;100920.91;;;18.21;69.30
79617;BME280;69097;52.132;5.422;2023-09-19T11:56:22;100918.69;;;18.25;69.39
79617;BME280;69097;52.132;5.422;2023-09-19T11:58:52;100917.88;;;18.25;69.16
79617;BME280;69097;52.132;5.422;2023-09-19T12:01:26;100912.50;;;18.27;69.29
79617;BME280;69097;52.132;5.422;2023-09-19T12:03:58;100937.78;;;18.25;68.49
79617;BME280;69097;52.132;5.422;2023-09-19T12:06:27;100936.34;;;18.20;69.15
79617;BME280;69097;52.132;5.422;2023-09-19T12:08:53;100941.47;;;18.16;69.18
79617;BME280;69097;52.132;5.422;2023-09-19T12:11:21;100941.94;;;18.15;69.29
79617;BME280;69097;52.132;5.422;2023-09-19T12:13:49;100937.81;;;18.16;69.84
79617;BME280;69097;52.132;5.422;2023-09-19T12:16:17;100937.78;;;18.25;69.94
79617;BME280;69097;52.132;5.422;2023-09-19T12:18:49;100941.69;;;18.27;69.37
79617;BME280;69097;52.132;5.422;2023-09-19T12:21:27;100923.09;;;18.26;69.81
79617;BME280;69097;52.132;5.422;2023-09-19T12:26:26;100933.94;;;18.28;70.73
79617;BME280;69097;52.132;5.422;2023-09-19T12:28:55;100929.91;;;18.20;70.37
79617;BME280;69097;52.132;5.422;2023-09-19T12:31:22;100927.75;;;18.15;70.28
79617;BME280;69097;52.132;5.422;2023-09-19T12:33:58;100931.56;;;18.12;70.29
79617;BME280;69097;52.132;5.422;2023-09-19T12:36:27;100928.72;;;18.12;70.18
79617;BME280;69097;52.132;5.422;2023-09-19T12:38:57;100929.31;;;18.16;71.14
79617;BME280;69097;52.132;5.422;2023-09-19T12:41:26;100926.78;;;18.18;70.83
79617;BME280;69097;52.132;5.422;2023-09-19T12:43:53;100929.31;;;18.16;70.61
79617;BME280;69097;52.132;5.422;2023-09-19T12:46:24;100928.09;;;18.08;70.77
79617;BME280;69097;52.132;5.422;2023-09-19T12:51:46;100932.44;;;17.94;71.52
79617;BME280;69097;52.132;5.422;2023-09-19T12:54:14;100939.09;;;17.91;71.07
79617;BME280;69097;52.132;5.422;2023-09-19T12:56:43;100928.03;;;17.93;72.83
79617;BME280;69097;52.132;5.422;2023-09-19T12:59:15;100928.50;;;17.92;72.43
79617;BME280;69097;52.132;5.422;2023-09-19T13:01:42;100931.97;;;17.96;72.14
79617;BME280;69097;52.132;5.422;2023-09-19T13:04:20;100933.16;;;18.04;71.76
79617;BME280;69097;52.132;5.422;2023-09-19T13:06:56;100934.56;;;18.08;71.96
79617;BME280;69097;52.132;5.422;2023-09-19T13:09:27;100936.44;;;18.11;72.13
79617;BME280;69097;52.132;5.422;2023-09-19T13:12:34;100928.31;;;18.19;71.31
79617;BME280;69097;52.132;5.422;2023-09-19T13:15:10;100929.91;;;18.20;71.61
79617;BME280;69097;52.132;5.422;2023-09-19T13:17:43;100930.28;;;18.13;70.78
79617;BME280;69097;52.132;5.422;2023-09-19T13:20:24;100930.16;;;18.07;71.08
79617;BME280;69097;52.132;5.422;2023-09-19T13:22:54;100956.34;;;18.02;71.85
79617;BME280;69097;52.132;5.422;2023-09-19T13:25:22;100951.81;;;17.96;73.62
79617;BME280;69097;52.132;5.422;2023-09-19T13:27:51;100937.69;;;17.87;73.46
79617;BME280;69097;52.132;5.422;2023-09-19T13:30:19;100940.56;;;17.78;73.70
79617;BME280;69097;52.132;5.422;2023-09-19T13:32:46;100935.88;;;17.75;73.58
79617;BME280;69097;52.132;5.422;2023-09-19T13:35:14;100934.84;;;17.87;73.98
79617;BME280;69097;52.132;5.422;2023-09-19T13:37:42;100926.91;;;18.00;73.87